createdAt,value
2023-06-03T00:00:54.090Z,15.80
2023-06-03T00:03:22.589Z,15.70
2023-06-03T00:05:50.621Z,15.70
2023-06-03T00:08:18.564Z,15.60
2023-06-03T00:10:47.868Z,15.60
2023-06-03T00:13:15.838Z,15.60
2023-06-03T00:15:43.906Z,15.60
2023-06-03T00:18:11.908Z,15.60
2023-06-03T00:20:40.353Z,15.50
2023-06-03T00:23:08.295Z,15.40
2023-06-03T00:25:36.564Z,15.40
2023-06-03T00:28:05.866Z,15.40
2023-06-03T00:30:33.917Z,15.30
2023-06-03T00:33:02.030Z,15.40
2023-06-03T00:35:30.076Z,15.30
2023-06-03T00:37:57.997Z,15.30
2023-06-03T00:40:26.062Z,15.30
2023-06-03T00:42:54.186Z,15.30
2023-06-03T00:45:23.665Z,15.30
2023-06-03T00:47:53.030Z,15.30
2023-06-03T00:50:21.028Z,15.20
2023-06-03T00:52:49.688Z,15.20
2023-06-03T00:55:17.700Z,15.20
2023-06-03T00:57:47.241Z,15.10
2023-06-03T01:00:15.511Z,15.10
2023-06-03T01:02:45.757Z,15.00
2023-06-03T01:05:14.642Z,15.00
2023-06-03T01:07:52.510Z,15.00
2023-06-03T01:10:29.150Z,15.00
2023-06-03T01:13:05.660Z,14.90
2023-06-03T01:15:36.053Z,14.90
2023-06-03T01:18:07.258Z,14.90
2023-06-03T01:20:35.938Z,14.90
2023-06-03T01:23:20.374Z,15.00
2023-06-03T01:25:51.889Z,14.90
2023-06-03T01:28:21.440Z,14.90
2023-06-03T01:30:49.944Z,14.90
2023-06-03T01:33:19.312Z,14.90
2023-06-03T01:35:48.457Z,14.80
2023-06-03T01:38:18.784Z,14.80
2023-06-03T01:40:47.113Z,14.80
2023-06-03T01:43:15.212Z,14.80
2023-06-03T01:45:43.441Z,14.80
2023-06-03T01:48:11.514Z,14.80
2023-06-03T01:50:42.866Z,14.80
2023-06-03T01:53:11.122Z,14.80
2023-06-03T01:55:40.797Z,14.80
2023-06-03T01:58:08.811Z,14.80
2023-06-03T02:00:36.895Z,14.80
2023-06-03T02:03:05.016Z,14.90
2023-06-03T02:05:33.067Z,14.80
2023-06-03T02:08:01.102Z,14.80
2023-06-03T02:10:29.037Z,14.80
2023-06-03T02:13:05.999Z,14.80
2023-06-03T02:15:33.944Z,14.80
2023-06-03T02:18:01.896Z,14.90
2023-06-03T02:20:29.886Z,14.90
2023-06-03T02:23:09.273Z,15.00
2023-06-03T02:25:47.592Z,15.00
2023-06-03T02:28:18.203Z,15.00
2023-06-03T02:30:46.131Z,15.00
2023-06-03T02:33:14.036Z,15.00
2023-06-03T02:35:42.165Z,14.90
2023-06-03T02:38:10.239Z,14.90
2023-06-03T02:40:38.107Z,14.90
2023-06-03T02:43:06.036Z,14.80
2023-06-03T02:45:35.343Z,14.80
2023-06-03T02:48:03.383Z,14.60
2023-06-03T02:50:35.171Z,14.50
2023-06-03T02:53:03.185Z,14.60
2023-06-03T02:55:34.541Z,14.40
2023-06-03T02:58:02.958Z,14.30
2023-06-03T03:00:36.904Z,14.30
2023-06-03T03:03:05.290Z,14.30
2023-06-03T03:05:33.703Z,14.20
2023-06-03T03:08:01.694Z,14.20
2023-06-03T03:10:29.805Z,14.10
2023-06-03T03:12:58.098Z,14.20
2023-06-03T03:15:26.263Z,14.10
2023-06-03T03:17:55.695Z,14.10
2023-06-03T03:20:23.838Z,14.00
2023-06-03T03:22:51.841Z,14.00
2023-06-03T03:25:20.100Z,14.00
2023-06-03T03:27:48.460Z,14.00
2023-06-03T03:30:16.669Z,14.10
2023-06-03T03:32:44.742Z,14.10
2023-06-03T03:35:18.465Z,14.10
2023-06-03T03:37:46.850Z,14.10
2023-06-03T03:40:21.064Z,14.30
2023-06-03T03:42:50.690Z,14.50
2023-06-03T03:45:20.742Z,14.50
2023-06-03T03:48:00.731Z,14.50
2023-06-03T03:50:42.774Z,14.50
2023-06-03T03:53:17.061Z,14.40
2023-06-03T03:55:46.852Z,14.40
2023-06-03T03:58:30.757Z,14.80
2023-06-03T04:01:02.272Z,15.30
2023-06-03T04:03:50.880Z,15.80
2023-06-03T04:06:37.736Z,16.20
2023-06-03T04:09:06.983Z,16.40
2023-06-03T04:11:39.231Z,16.80
2023-06-03T04:14:11.938Z,17.30
2023-06-03T04:16:57.702Z,17.30
2023-06-03T04:19:38.281Z,17.10
2023-06-03T04:22:10.941Z,16.90
2023-06-03T04:24:53.767Z,16.50
2023-06-03T04:27:22.941Z,17.00
2023-06-03T04:29:53.395Z,17.70
2023-06-03T04:32:22.179Z,17.60
2023-06-03T04:34:51.825Z,17.60
2023-06-03T04:37:27.920Z,17.50
2023-06-03T04:39:55.955Z,17.20
2023-06-03T04:42:24.094Z,17.40
2023-06-03T04:44:52.984Z,17.90
2023-06-03T04:47:20.940Z,17.80
2023-06-03T04:49:49.368Z,17.80
2023-06-03T04:52:17.618Z,17.40
2023-06-03T04:54:47.043Z,17.10
2023-06-03T04:57:14.937Z,16.60
2023-06-03T04:59:45.115Z,16.30
2023-06-03T05:02:14.673Z,16.20
2023-06-03T05:04:45.285Z,16.20
2023-06-03T05:07:13.302Z,16.10
2023-06-03T05:09:41.417Z,16.10
2023-06-03T05:12:11.789Z,16.20
2023-06-03T05:14:42.078Z,16.10
2023-06-03T05:17:13.722Z,16.30
2023-06-03T05:19:41.618Z,16.40
2023-06-03T05:22:09.541Z,16.30
2023-06-03T05:24:37.482Z,16.40
2023-06-03T05:27:06.889Z,16.50
2023-06-03T05:29:37.131Z,16.90
2023-06-03T05:32:09.834Z,17.60
2023-06-03T05:34:37.864Z,17.90
2023-06-03T05:37:08.134Z,17.90
2023-06-03T05:39:38.023Z,18.80
2023-06-03T05:42:06.984Z,20.20
2023-06-03T05:44:36.636Z,21.60
2023-06-03T05:47:04.949Z,22.10
2023-06-03T05:49:32.864Z,22.30
2023-06-03T05:52:00.937Z,23.50
2023-06-03T05:54:29.722Z,24.90
2023-06-03T05:56:58.771Z,25.50
2023-06-03T05:59:27.083Z,24.70
2023-06-03T06:01:56.964Z,24.40
2023-06-03T06:04:25.191Z,24.40
2023-06-03T06:06:53.290Z,25.50
2023-06-03T06:09:21.271Z,27.20
2023-06-03T06:11:49.552Z,27.80
2023-06-03T06:14:17.459Z,28.50
2023-06-03T06:16:45.739Z,29.50
2023-06-03T06:19:15.073Z,29.60
2023-06-03T06:21:43.086Z,29.50
2023-06-03T06:24:11.120Z,30.30
2023-06-03T06:26:40.413Z,30.70
2023-06-03T06:29:08.643Z,30.40
2023-06-03T06:31:37.150Z,30.70
2023-06-03T06:34:06.685Z,31.00
2023-06-03T06:36:45.416Z,31.40
2023-06-03T06:39:46.755Z,31.80
2023-06-03T06:42:16.268Z,32.30
2023-06-03T06:44:47.442Z,32.00
2023-06-03T06:47:20.439Z,32.50
2023-06-03T06:49:49.122Z,32.90
2023-06-03T06:52:20.368Z,32.90
2023-06-03T06:54:48.564Z,33.40
2023-06-03T06:57:22.920Z,33.30
2023-06-03T06:59:53.170Z,32.20
2023-06-03T07:02:22.079Z,30.90
2023-06-03T07:04:50.932Z,30.40
2023-06-03T07:07:20.631Z,30.00
2023-06-03T07:09:48.857Z,30.50
2023-06-03T07:12:17.251Z,31.10
2023-06-03T07:14:45.617Z,31.90
2023-06-03T07:17:13.845Z,32.30
2023-06-03T07:19:42.055Z,32.50
2023-06-03T07:22:10.358Z,32.10
2023-06-03T07:24:39.880Z,32.50
2023-06-03T07:27:09.765Z,32.40
2023-06-03T07:29:40.157Z,32.20
2023-06-03T07:32:09.692Z,32.60
2023-06-03T07:34:38.600Z,32.10
2023-06-03T07:37:13.841Z,33.10
2023-06-03T07:39:44.062Z,33.50
2023-06-03T07:42:21.690Z,32.80
2023-06-03T07:44:51.402Z,33.00
2023-06-03T07:47:20.200Z,33.00
2023-06-03T07:49:49.654Z,33.10
2023-06-03T07:52:19.508Z,33.00
2023-06-03T07:54:49.477Z,33.40
2023-06-03T07:57:18.243Z,34.20
2023-06-03T07:59:53.418Z,35.20
2023-06-03T08:02:21.726Z,34.90
2023-06-03T08:04:50.866Z,35.20
2023-06-03T08:07:21.518Z,35.60
2023-06-03T08:09:51.190Z,35.30
2023-06-03T08:14:54.328Z,34.40
2023-06-03T08:17:40.183Z,34.20
2023-06-03T08:20:11.424Z,34.60
2023-06-03T08:22:43.486Z,35.40
2023-06-03T08:25:14.306Z,35.20
2023-06-03T08:27:42.645Z,35.10
2023-06-03T08:30:13.991Z,34.80
2023-06-03T08:32:43.015Z,35.00
2023-06-03T08:35:12.285Z,35.10
2023-06-03T08:37:40.478Z,34.60
2023-06-03T08:40:10.272Z,34.30
2023-06-03T08:42:44.172Z,34.40
2023-06-03T08:45:13.341Z,35.20
2023-06-03T08:47:52.159Z,35.10
2023-06-03T08:50:22.987Z,35.20
2023-06-03T08:52:53.914Z,35.30
2023-06-03T08:55:23.334Z,35.80
2023-06-03T08:57:58.517Z,36.80
2023-06-03T09:00:28.700Z,36.70
2023-06-03T09:02:57.751Z,37.00
2023-06-03T09:05:26.737Z,37.20
2023-06-03T09:07:56.125Z,37.20
2023-06-03T09:10:26.857Z,36.60
2023-06-03T09:12:59.630Z,37.20
2023-06-03T09:15:28.221Z,38.00
2023-06-03T09:17:56.393Z,37.90
2023-06-03T09:20:25.458Z,37.70
2023-06-03T09:22:54.950Z,38.10
2023-06-03T09:25:23.060Z,38.00
2023-06-03T09:27:51.090Z,37.70
2023-06-03T09:30:20.515Z,37.80
2023-06-03T09:32:48.735Z,38.50
2023-06-03T09:35:17.044Z,39.40
2023-06-03T09:38:01.470Z,37.20
2023-06-03T09:40:31.152Z,35.10
2023-06-03T09:42:59.803Z,34.30
2023-06-03T09:45:31.983Z,34.80
2023-06-03T09:48:00.482Z,36.30
2023-06-03T09:50:29.847Z,36.80
2023-06-03T09:52:58.125Z,36.40
2023-06-03T09:55:34.017Z,35.20
2023-06-03T09:58:04.295Z,34.80
2023-06-03T10:00:46.417Z,35.30
2023-06-03T10:03:14.745Z,34.70
2023-06-03T10:05:43.449Z,34.10
2023-06-03T10:08:11.541Z,34.70
2023-06-03T10:10:57.611Z,34.30
2023-06-03T10:13:26.220Z,33.90
2023-06-03T10:15:56.260Z,34.90
2023-06-03T10:18:37.653Z,36.00
2023-06-03T10:21:08.594Z,37.00
2023-06-03T10:23:40.432Z,36.60
2023-06-03T10:26:08.946Z,35.30
2023-06-03T10:28:37.691Z,33.40
2023-06-03T10:31:09.404Z,31.50
2023-06-03T10:33:38.953Z,30.60
2023-06-03T10:36:09.094Z,30.30
2023-06-03T10:38:38.514Z,30.60
2023-06-03T10:41:07.638Z,31.50
2023-06-03T10:43:38.752Z,33.10
2023-06-03T10:46:08.913Z,33.40
2023-06-03T10:48:39.109Z,32.30
2023-06-03T10:51:21.463Z,30.40
2023-06-03T10:54:05.609Z,28.90
2023-06-03T10:56:38.112Z,28.10
2023-06-03T10:59:11.705Z,28.80
2023-06-03T11:02:04.322Z,30.20
2023-06-03T11:04:34.381Z,31.20
2023-06-03T11:07:03.740Z,31.70
2023-06-03T11:09:33.335Z,32.10
2023-06-03T11:12:06.868Z,32.50
2023-06-03T11:14:57.294Z,32.50
2023-06-03T11:17:27.488Z,31.90
2023-06-03T11:20:08.269Z,31.80
2023-06-03T11:22:42.381Z,32.10
2023-06-03T11:25:26.956Z,32.50
2023-06-03T11:28:15.967Z,33.00
2023-06-03T11:30:56.085Z,32.90
2023-06-03T11:33:25.495Z,32.90
2023-06-03T11:35:53.486Z,32.70
2023-06-03T11:39:02.027Z,32.60
2023-06-03T11:42:05.160Z,32.10
2023-06-03T11:44:35.617Z,31.60
2023-06-03T11:47:05.362Z,31.20
2023-06-03T11:49:37.219Z,31.10
2023-06-03T11:52:06.392Z,30.70
2023-06-03T11:54:34.393Z,30.10
2023-06-03T11:57:04.784Z,29.80
2023-06-03T11:59:34.852Z,29.80
2023-06-03T12:02:04.547Z,29.60
2023-06-03T12:04:33.286Z,29.50
2023-06-03T12:07:04.355Z,29.20
2023-06-03T12:09:32.368Z,29.00
2023-06-03T12:12:07.007Z,29.20
2023-06-03T12:14:36.421Z,29.40
2023-06-03T12:17:11.322Z,29.50
2023-06-03T12:19:43.674Z,29.50
2023-06-03T12:22:13.842Z,29.50
2023-06-03T12:24:43.431Z,29.60
2023-06-03T12:27:22.804Z,29.70
2023-06-03T12:29:53.740Z,29.40
2023-06-03T12:32:22.381Z,28.90
2023-06-03T12:34:51.377Z,29.10
2023-06-03T12:37:35.126Z,29.30
2023-06-03T12:40:04.619Z,28.90
2023-06-03T12:42:40.005Z,28.40
2023-06-03T12:45:09.684Z,27.90
2023-06-03T12:47:45.850Z,27.30
2023-06-03T12:50:14.836Z,27.10
2023-06-03T12:52:44.264Z,26.80
2023-06-03T12:55:14.448Z,26.60
2023-06-03T12:57:44.277Z,26.80
2023-06-03T13:00:16.556Z,27.10
2023-06-03T13:02:46.305Z,27.20
2023-06-03T13:05:16.095Z,27.20
2023-06-03T13:07:47.131Z,27.30
2023-06-03T13:10:17.202Z,27.10
2023-06-03T13:12:46.591Z,27.10
2023-06-03T13:15:14.613Z,26.70
2023-06-03T13:17:43.071Z,26.30
2023-06-03T13:20:11.659Z,26.00
2023-06-03T13:22:41.484Z,25.60
2023-06-03T13:25:11.468Z,25.40
2023-06-03T13:27:42.789Z,25.40
2023-06-03T13:30:13.424Z,25.40
2023-06-03T13:32:42.027Z,25.50
2023-06-03T13:35:10.776Z,25.70
2023-06-03T13:37:39.003Z,25.90
2023-06-03T13:40:08.555Z,26.10
2023-06-03T13:42:37.998Z,26.30
2023-06-03T13:45:08.115Z,26.30
2023-06-03T13:47:36.922Z,26.30
2023-06-03T13:50:05.558Z,26.20
2023-06-03T13:52:33.692Z,26.10
2023-06-03T13:55:02.094Z,26.10
2023-06-03T13:57:30.144Z,26.20
2023-06-03T13:59:59.842Z,26.40
2023-06-03T14:02:28.855Z,26.60
2023-06-03T14:04:56.990Z,26.80
2023-06-03T14:07:26.342Z,26.80
2023-06-03T14:09:54.476Z,27.00
2023-06-03T14:12:22.856Z,27.10
2023-06-03T14:14:50.878Z,27.10
2023-06-03T14:17:23.313Z,26.90
2023-06-03T14:19:51.483Z,26.70
2023-06-03T14:22:19.688Z,26.40
2023-06-03T14:24:47.889Z,25.90
2023-06-03T14:27:16.393Z,25.70
2023-06-03T14:29:44.935Z,25.60
2023-06-03T14:32:12.996Z,25.60
2023-06-03T14:34:42.592Z,25.50
2023-06-03T14:37:10.564Z,25.40
2023-06-03T14:39:38.573Z,25.30
2023-06-03T14:42:07.520Z,25.00
2023-06-03T14:44:35.737Z,25.00
2023-06-03T14:47:07.344Z,25.00
2023-06-03T14:49:35.402Z,25.00
2023-06-03T14:52:05.160Z,25.20
2023-06-03T14:54:33.226Z,25.40
2023-06-03T14:57:01.412Z,25.60
2023-06-03T14:59:29.490Z,25.80
2023-06-03T15:01:57.619Z,26.00
2023-06-03T15:04:25.598Z,26.00
2023-06-03T15:06:53.746Z,25.70
2023-06-03T15:09:23.308Z,25.20
2023-06-03T15:11:51.564Z,24.80
2023-06-03T15:14:19.956Z,24.70
2023-06-03T15:16:47.933Z,24.80
2023-06-03T15:19:16.099Z,24.80
2023-06-03T15:21:44.929Z,24.80
2023-06-03T15:24:12.976Z,24.70
2023-06-03T15:26:43.060Z,24.80
2023-06-03T15:29:11.337Z,25.00
2023-06-03T15:31:40.072Z,25.20
2023-06-03T15:34:08.062Z,25.40
2023-06-03T15:36:36.096Z,25.10
2023-06-03T15:39:04.515Z,24.80
2023-06-03T15:41:32.632Z,24.50
2023-06-03T15:44:02.017Z,24.20
2023-06-03T15:46:30.191Z,24.10
2023-06-03T15:48:58.505Z,24.10
2023-06-03T15:51:26.684Z,23.80
2023-06-03T15:53:54.663Z,23.70
2023-06-03T15:56:22.624Z,23.70
2023-06-03T15:58:51.946Z,23.80
2023-06-03T16:01:21.469Z,23.90
2023-06-03T16:03:49.739Z,23.90
2023-06-03T16:06:17.724Z,23.90
2023-06-03T16:08:45.859Z,23.80
2023-06-03T16:11:14.234Z,23.70
2023-06-03T16:13:42.901Z,23.60
2023-06-03T16:16:11.100Z,23.60
2023-06-03T16:18:40.778Z,23.60
2023-06-03T16:21:08.755Z,23.60
2023-06-03T16:23:36.850Z,23.70
2023-06-03T16:26:05.948Z,23.60
2023-06-03T16:28:34.094Z,23.60
2023-06-03T16:31:02.160Z,23.60
2023-06-03T16:33:37.292Z,23.60
2023-06-03T16:36:08.038Z,23.60
2023-06-03T16:38:38.549Z,23.40
2023-06-03T16:41:06.828Z,23.30
2023-06-03T16:43:35.149Z,23.30
2023-06-03T16:46:03.280Z,23.30
2023-06-03T16:48:31.335Z,23.20
2023-06-03T16:50:59.339Z,23.10
2023-06-03T16:53:28.701Z,23.10
2023-06-03T16:55:56.666Z,23.00
2023-06-03T16:58:25.317Z,23.00
2023-06-03T17:00:53.416Z,23.00
2023-06-03T17:03:23.356Z,23.10
2023-06-03T17:05:51.559Z,23.20
2023-06-03T17:08:19.536Z,23.20
2023-06-03T17:10:49.164Z,23.20
2023-06-03T17:13:17.757Z,23.10
2023-06-03T17:15:45.751Z,23.10
2023-06-03T17:18:13.771Z,23.00
2023-06-03T17:20:42.764Z,23.00
2023-06-03T17:23:11.322Z,22.90
2023-06-03T17:25:39.417Z,22.80
2023-06-03T17:28:08.820Z,22.80
2023-06-03T17:30:37.248Z,22.80
2023-06-03T17:33:05.388Z,22.80
2023-06-03T17:35:33.695Z,22.80
2023-06-03T17:38:01.797Z,22.70
2023-06-03T17:40:30.104Z,22.80
2023-06-03T17:42:58.452Z,22.60
2023-06-03T17:45:28.073Z,22.50
2023-06-03T17:47:56.103Z,22.50
2023-06-03T17:50:24.489Z,22.50
2023-06-03T17:52:52.636Z,22.40
2023-06-03T17:55:20.885Z,22.40
2023-06-03T17:57:50.182Z,22.40
2023-06-03T18:00:19.693Z,22.30
2023-06-03T18:02:49.860Z,22.30
2023-06-03T18:05:17.919Z,22.30
2023-06-03T18:07:45.958Z,22.30
2023-06-03T18:10:14.368Z,22.20
2023-06-03T18:12:44.496Z,22.10
2023-06-03T18:15:14.180Z,22.00
2023-06-03T18:17:43.901Z,22.00
2023-06-03T18:20:13.615Z,22.00
2023-06-03T18:22:41.650Z,21.90
2023-06-03T18:25:10.930Z,21.80
2023-06-03T18:27:38.974Z,21.80
2023-06-03T18:30:08.958Z,21.70
2023-06-03T18:32:37.197Z,21.70
2023-06-03T18:35:06.381Z,21.60
2023-06-03T18:37:35.805Z,21.50
2023-06-03T18:40:03.917Z,21.50
2023-06-03T18:42:32.010Z,21.50
2023-06-03T18:45:00.032Z,21.40
2023-06-03T18:47:28.067Z,21.40
2023-06-03T18:49:56.036Z,21.30
2023-06-03T18:52:24.104Z,21.30
2023-06-03T18:54:53.438Z,21.30
2023-06-03T18:57:21.533Z,21.10
2023-06-03T18:59:49.568Z,21.10
2023-06-03T19:02:17.608Z,21.00
2023-06-03T19:04:45.779Z,21.00
2023-06-03T19:07:13.768Z,21.00
2023-06-03T19:09:41.820Z,20.90
2023-06-03T19:12:11.622Z,20.80
2023-06-03T19:14:39.659Z,20.80
2023-06-03T19:17:07.769Z,20.80
2023-06-03T19:19:35.792Z,20.70
2023-06-03T19:22:04.085Z,20.60
2023-06-03T19:24:32.060Z,20.60
2023-06-03T19:27:00.058Z,20.50
2023-06-03T19:29:29.388Z,20.50
2023-06-03T19:31:57.786Z,20.50
2023-06-03T19:34:25.793Z,20.40
2023-06-03T19:36:53.760Z,20.40
2023-06-03T19:39:21.775Z,20.30
2023-06-03T19:41:49.709Z,20.20
2023-06-03T19:44:17.777Z,20.20
2023-06-03T19:46:47.272Z,20.20
2023-06-03T19:49:15.386Z,20.10
2023-06-03T19:51:43.356Z,20.10
2023-06-03T19:54:13.285Z,20.00
2023-06-03T19:56:43.098Z,19.90
2023-06-03T19:59:14.664Z,19.90
2023-06-03T20:01:42.946Z,19.80
2023-06-03T20:04:14.876Z,19.80
2023-06-03T20:06:42.930Z,19.70
2023-06-03T20:09:11.017Z,19.70
2023-06-03T20:11:39.051Z,19.60
2023-06-03T20:14:07.276Z,19.60
2023-06-03T20:16:36.010Z,19.50
2023-06-03T20:19:04.162Z,19.40
2023-06-03T20:21:33.585Z,19.40
2023-06-03T20:24:01.721Z,19.30
2023-06-03T20:26:30.017Z,19.20
2023-06-03T20:28:58.490Z,19.20
2023-06-03T20:31:26.635Z,19.10
2023-06-03T20:33:54.773Z,19.10
2023-06-03T20:36:25.502Z,19.00
2023-06-03T20:38:54.945Z,18.90
2023-06-03T20:41:23.002Z,18.90
2023-06-03T20:43:51.032Z,18.90
2023-06-03T20:46:19.454Z,18.80
2023-06-03T20:48:47.638Z,18.80
2023-06-03T20:51:16.507Z,18.70
2023-06-03T20:53:44.470Z,18.70
2023-06-03T20:56:13.969Z,18.60
2023-06-03T20:58:41.921Z,18.60
2023-06-03T21:01:09.988Z,18.50
2023-06-03T21:03:38.250Z,18.50
2023-06-03T21:06:07.308Z,18.40
2023-06-03T21:08:35.466Z,18.40
2023-06-03T21:11:04.058Z,18.20
2023-06-03T21:13:33.744Z,18.30
2023-06-03T21:16:02.480Z,18.20
2023-06-03T21:18:30.470Z,18.20
2023-06-03T21:20:59.554Z,18.20
2023-06-03T21:23:30.769Z,18.10
2023-06-03T21:25:59.939Z,18.00
2023-06-03T21:28:30.106Z,18.00
2023-06-03T21:30:59.611Z,18.00
2023-06-03T21:33:28.002Z,17.90
2023-06-03T21:35:57.006Z,17.90
2023-06-03T21:38:27.041Z,17.80
2023-06-03T21:40:56.581Z,17.70
2023-06-03T21:43:24.550Z,17.70
2023-06-03T21:45:52.686Z,17.60
2023-06-03T21:48:22.192Z,17.60
2023-06-03T21:50:50.192Z,17.60
2023-06-03T21:53:18.566Z,17.50
2023-06-03T21:55:46.666Z,17.50
2023-06-03T21:58:14.703Z,17.40
2023-06-03T22:00:42.693Z,17.40
2023-06-03T22:03:10.744Z,17.30
2023-06-03T22:05:41.839Z,17.20
2023-06-03T22:08:09.918Z,17.20
2023-06-03T22:10:37.945Z,17.20
2023-06-03T22:13:05.927Z,17.10
2023-06-03T22:15:33.974Z,17.10
2023-06-03T22:18:02.014Z,17.10
2023-06-03T22:20:30.190Z,17.10
2023-06-03T22:23:07.066Z,17.10
2023-06-03T22:25:36.775Z,17.00
2023-06-03T22:28:05.252Z,17.00
2023-06-03T22:30:33.302Z,17.00
2023-06-03T22:33:01.559Z,17.00
2023-06-03T22:35:29.630Z,17.00
2023-06-03T22:37:58.903Z,17.00
2023-06-03T22:40:26.937Z,17.00
2023-06-03T22:42:54.883Z,17.00
2023-06-03T22:45:23.052Z,16.90
2023-06-03T22:47:51.081Z,16.90
2023-06-03T22:50:19.429Z,16.90
2023-06-03T22:52:47.356Z,16.90
2023-06-03T22:55:16.705Z,16.80
2023-06-03T22:57:44.752Z,16.80
2023-06-03T23:00:13.897Z,16.70
2023-06-03T23:02:41.965Z,16.70
2023-06-03T23:05:10.386Z,16.60
2023-06-03T23:07:38.396Z,16.60
2023-06-03T23:10:07.111Z,16.50
2023-06-03T23:12:36.663Z,16.50
2023-06-03T23:15:06.306Z,16.50
2023-06-03T23:17:34.560Z,16.40
2023-06-03T23:20:02.790Z,16.40
2023-06-03T23:22:31.048Z,16.30
2023-06-03T23:24:59.088Z,16.30
2023-06-03T23:27:27.031Z,16.30
2023-06-03T23:29:56.568Z,16.30
2023-06-03T23:32:24.634Z,16.30
2023-06-03T23:34:52.794Z,16.30
2023-06-03T23:37:20.996Z,16.30
2023-06-03T23:39:49.227Z,16.30
2023-06-03T23:42:17.281Z,16.20
2023-06-03T23:44:45.613Z,16.20
2023-06-03T23:47:15.149Z,16.20
2023-06-03T23:49:43.172Z,16.20
2023-06-03T23:52:11.460Z,16.10
2023-06-03T23:54:39.521Z,16.10
2023-06-03T23:57:07.836Z,16.00
2023-06-03T23:59:35.847Z,15.90
